createdAt,value
2018-06-29T00:00:18.032Z,17.49
2018-06-29T00:01:53.668Z,17.50
2018-06-29T00:03:33.717Z,17.47
2018-06-29T00:05:10.562Z,17.44
2018-06-29T00:08:17.546Z,17.53
2018-06-29T00:09:55.025Z,17.40
2018-06-29T00:11:30.755Z,17.38
2018-06-29T00:13:05.735Z,17.33
2018-06-29T00:14:42.985Z,17.28
2018-06-29T00:16:19.661Z,17.15
2018-06-29T00:17:55.247Z,17.13
2018-06-29T00:19:31.313Z,17.09
2018-06-29T00:21:09.476Z,17.01
2018-06-29T00:22:44.699Z,16.99
2018-06-29T00:24:19.722Z,17.07
2018-06-29T00:25:54.816Z,17.10
2018-06-29T00:27:30.254Z,17.09
2018-06-29T00:29:06.533Z,17.10
2018-06-29T00:30:41.681Z,17.07
2018-06-29T00:32:16.795Z,16.98
2018-06-29T00:33:51.853Z,16.91
2018-06-29T00:35:27.348Z,16.81
2018-06-29T00:37:02.529Z,16.84
2018-06-29T00:38:37.532Z,16.84
2018-06-29T00:40:13.551Z,16.76
2018-06-29T00:41:48.654Z,16.71
2018-06-29T00:43:24.243Z,16.66
2018-06-29T00:44:59.308Z,16.62
2018-06-29T00:46:34.668Z,16.51
2018-06-29T00:48:09.935Z,16.41
2018-06-29T00:49:46.183Z,16.33
2018-06-29T00:51:21.723Z,16.31
2018-06-29T00:52:56.921Z,16.26
2018-06-29T00:54:32.944Z,16.22
2018-06-29T00:56:08.609Z,16.12
2018-06-29T00:57:44.421Z,16.04
2018-06-29T00:59:20.381Z,16.05
2018-06-29T01:00:57.194Z,16.01
2018-06-29T01:02:32.490Z,16.08
2018-06-29T01:04:07.931Z,16.11
2018-06-29T01:05:43.136Z,16.11
2018-06-29T01:07:18.275Z,16.13
2018-06-29T01:08:53.417Z,16.16
2018-06-29T01:10:29.181Z,16.18
2018-06-29T01:12:04.556Z,16.16
2018-06-29T01:13:39.383Z,16.12
2018-06-29T01:15:18.472Z,16.15
2018-06-29T01:16:53.847Z,16.16
2018-06-29T01:18:29.899Z,16.16
2018-06-29T01:20:05.426Z,16.16
2018-06-29T01:21:40.793Z,16.15
2018-06-29T01:23:16.163Z,16.24
2018-06-29T01:24:51.336Z,16.24
2018-06-29T01:26:28.117Z,16.26
2018-06-29T01:28:03.962Z,16.23
2018-06-29T01:29:44.158Z,16.26
2018-06-29T01:31:19.470Z,16.27
2018-06-29T01:34:09.681Z,16.22
2018-06-29T01:35:45.209Z,16.21
2018-06-29T01:37:21.569Z,16.18
2018-06-29T01:38:56.578Z,16.10
2018-06-29T01:40:31.831Z,16.01
2018-06-29T01:42:07.917Z,16.02
2018-06-29T01:43:43.856Z,16.02
2018-06-29T01:45:20.893Z,15.93
2018-06-29T01:46:56.436Z,15.84
2018-06-29T01:48:33.023Z,15.78
2018-06-29T01:50:08.552Z,15.75
2018-06-29T01:51:44.664Z,15.70
2018-06-29T01:53:20.529Z,15.67
2018-06-29T01:54:56.597Z,15.83
2018-06-29T01:56:32.137Z,15.86
2018-06-29T01:58:08.184Z,15.82
2018-06-29T01:59:44.703Z,15.80
2018-06-29T02:01:21.495Z,15.90
2018-06-29T02:02:56.763Z,16.02
2018-06-29T02:04:31.963Z,16.12
2018-06-29T02:06:06.994Z,16.33
2018-06-29T02:07:42.328Z,16.35
2018-06-29T02:09:17.483Z,16.47
2018-06-29T02:10:53.075Z,16.56
2018-06-29T02:12:28.327Z,16.62
2018-06-29T02:14:03.889Z,16.81
2018-06-29T02:15:39.491Z,16.87
2018-06-29T02:17:14.533Z,16.96
2018-06-29T02:18:49.712Z,17.12
2018-06-29T02:20:24.916Z,17.23
2018-06-29T02:22:00.862Z,17.24
2018-06-29T02:23:37.371Z,17.30
2018-06-29T02:25:12.710Z,17.25
2018-06-29T02:26:47.871Z,17.27
2018-06-29T02:28:23.100Z,17.24
2018-06-29T02:29:59.239Z,17.19
2018-06-29T02:31:35.311Z,17.12
2018-06-29T02:33:10.877Z,17.16
2018-06-29T02:34:46.065Z,17.11
2018-06-29T02:36:21.145Z,17.16
2018-06-29T02:37:57.867Z,17.15
2018-06-29T02:39:33.405Z,17.11
2018-06-29T02:41:08.720Z,17.14
2018-06-29T02:42:43.878Z,16.99
2018-06-29T02:44:19.884Z,16.98
2018-06-29T02:45:55.370Z,16.90
2018-06-29T02:47:30.420Z,16.88
2018-06-29T02:49:05.764Z,16.73
2018-06-29T02:50:41.088Z,16.66
2018-06-29T02:52:16.234Z,16.62
2018-06-29T02:53:51.647Z,16.60
2018-06-29T02:55:27.177Z,16.66
2018-06-29T02:57:02.365Z,16.61
2018-06-29T02:58:37.402Z,16.63
2018-06-29T03:00:14.926Z,16.57
2018-06-29T03:01:50.401Z,16.51
2018-06-29T03:03:25.722Z,16.60
2018-06-29T03:05:00.803Z,16.63
2018-06-29T03:06:35.708Z,16.53
2018-06-29T03:10:00.060Z,16.53
2018-06-29T03:11:36.542Z,16.57
2018-06-29T03:13:11.756Z,16.53
2018-06-29T03:14:46.952Z,16.55
2018-06-29T03:16:22.640Z,16.51
2018-06-29T03:17:57.802Z,16.49
2018-06-29T03:19:32.587Z,16.48
2018-06-29T03:21:07.665Z,16.48
2018-06-29T03:22:42.816Z,16.40
2018-06-29T03:24:18.130Z,16.42
2018-06-29T03:25:52.953Z,16.35
2018-06-29T03:27:27.759Z,16.28
2018-06-29T03:29:03.142Z,16.13
2018-06-29T03:30:38.575Z,15.99
2018-06-29T03:32:13.989Z,15.85
2018-06-29T03:33:50.265Z,15.81
2018-06-29T03:35:25.747Z,15.68
2018-06-29T03:37:01.066Z,15.56
2018-06-29T03:38:35.962Z,15.40
2018-06-29T03:40:11.593Z,15.33
2018-06-29T03:41:47.015Z,15.22
2018-06-29T03:43:23.927Z,15.16
2018-06-29T03:44:59.722Z,15.08
2018-06-29T03:46:34.828Z,14.96
2018-06-29T03:48:11.428Z,14.92
2018-06-29T03:49:46.715Z,14.81
2018-06-29T03:51:22.163Z,14.80
2018-06-29T03:52:59.208Z,14.70
2018-06-29T03:54:34.348Z,14.71
2018-06-29T03:56:09.720Z,14.63
2018-06-29T03:57:44.788Z,14.52
2018-06-29T03:59:20.164Z,14.46
2018-06-29T04:00:55.029Z,14.45
2018-06-29T04:02:30.530Z,14.40
2018-06-29T04:04:05.880Z,14.37
2018-06-29T04:05:40.904Z,14.40
2018-06-29T04:07:17.680Z,14.36
2018-06-29T04:08:53.000Z,14.30
2018-06-29T04:10:28.549Z,14.32
2018-06-29T04:12:05.065Z,14.30
2018-06-29T04:13:39.999Z,14.30
2018-06-29T04:15:16.641Z,14.21
2018-06-29T04:16:52.703Z,14.28
2018-06-29T04:18:28.229Z,14.24
2018-06-29T04:20:03.282Z,14.28
2018-06-29T04:21:38.357Z,14.31
2018-06-29T04:23:13.507Z,14.38
2018-06-29T04:24:48.790Z,14.37
2018-06-29T04:26:25.081Z,14.46
2018-06-29T04:28:01.796Z,14.51
2018-06-29T04:29:37.497Z,14.58
2018-06-29T04:31:13.326Z,14.58
2018-06-29T04:32:48.585Z,14.62
2018-06-29T04:34:24.868Z,14.68
2018-06-29T04:36:01.818Z,14.72
2018-06-29T04:37:37.077Z,14.83
2018-06-29T04:39:12.564Z,14.84
2018-06-29T04:40:47.840Z,14.88
2018-06-29T04:42:23.398Z,14.95
2018-06-29T04:43:58.502Z,14.99
2018-06-29T04:45:33.483Z,15.10
2018-06-29T04:47:08.447Z,15.18
2018-06-29T04:48:43.824Z,15.28
2018-06-29T04:50:20.945Z,15.35
2018-06-29T04:51:56.025Z,15.40
2018-06-29T04:53:30.892Z,15.50
2018-06-29T04:55:07.392Z,15.59
2018-06-29T04:56:44.825Z,15.68
2018-06-29T04:58:20.392Z,15.92
2018-06-29T04:59:55.489Z,16.16
2018-06-29T05:01:30.748Z,16.28
2018-06-29T05:03:05.823Z,16.48
2018-06-29T05:04:41.875Z,16.59
2018-06-29T05:06:17.858Z,16.73
2018-06-29T05:07:54.410Z,17.05
2018-06-29T05:09:30.542Z,17.25
2018-06-29T05:11:06.412Z,17.48
2018-06-29T05:12:41.517Z,17.68
2018-06-29T05:14:16.839Z,17.88
2018-06-29T05:15:52.148Z,18.11
2018-06-29T05:17:29.063Z,18.26
2018-06-29T05:19:06.948Z,18.52
2018-06-29T05:20:45.166Z,18.71
2018-06-29T05:22:20.294Z,18.68
2018-06-29T05:23:56.355Z,18.65
2018-06-29T05:25:31.951Z,18.78
2018-06-29T05:28:42.675Z,19.45
2018-06-29T05:30:18.066Z,19.59
2018-06-29T05:31:53.288Z,19.96
2018-06-29T05:33:29.764Z,20.21
2018-06-29T05:35:05.712Z,20.27
2018-06-29T05:36:40.895Z,20.65
2018-06-29T05:38:16.264Z,20.52
2018-06-29T05:39:52.801Z,20.83
2018-06-29T05:41:29.390Z,20.97
2018-06-29T05:43:05.084Z,21.33
2018-06-29T05:44:40.738Z,21.48
2018-06-29T05:46:20.495Z,21.71
2018-06-29T05:47:55.225Z,21.95
2018-06-29T05:49:30.065Z,22.12
2018-06-29T05:51:05.276Z,21.73
2018-06-29T05:52:40.323Z,22.14
2018-06-29T05:54:17.736Z,22.08
2018-06-29T05:55:52.590Z,21.78
2018-06-29T05:57:28.271Z,21.49
2018-06-29T05:59:03.715Z,21.25
2018-06-29T06:00:41.301Z,20.96
2018-06-29T06:02:18.048Z,21.20
2018-06-29T06:03:53.024Z,21.53
2018-06-29T06:05:29.332Z,21.47
2018-06-29T06:07:09.858Z,21.51
2018-06-29T06:08:53.009Z,21.61
2018-06-29T06:10:31.311Z,21.73
2018-06-29T06:12:08.832Z,21.50
2018-06-29T06:13:45.996Z,21.61
2018-06-29T06:15:21.523Z,21.68
2018-06-29T06:16:56.542Z,21.76
2018-06-29T06:18:31.691Z,21.91
2018-06-29T06:20:12.373Z,21.84
2018-06-29T06:21:48.306Z,21.70
2018-06-29T06:23:23.229Z,21.74
2018-06-29T06:24:58.484Z,21.69
2018-06-29T06:26:36.025Z,21.80
2018-06-29T06:28:11.947Z,21.64
2018-06-29T06:29:48.626Z,21.45
2018-06-29T06:31:25.900Z,21.42
2018-06-29T06:33:05.323Z,21.73
2018-06-29T06:34:41.149Z,22.20
2018-06-29T06:36:16.404Z,22.03
2018-06-29T06:37:52.260Z,22.30
2018-06-29T06:39:27.368Z,22.34
2018-06-29T06:41:02.917Z,22.42
2018-06-29T06:42:37.871Z,22.57
2018-06-29T06:44:12.693Z,22.77
2018-06-29T06:45:49.812Z,22.46
2018-06-29T06:47:25.302Z,22.53
2018-06-29T06:49:00.491Z,22.66
2018-06-29T06:50:38.388Z,22.73
2018-06-29T06:52:15.621Z,22.77
2018-06-29T06:53:52.673Z,22.89
2018-06-29T06:55:28.810Z,23.08
2018-06-29T06:57:07.118Z,22.73
2018-06-29T06:58:42.932Z,23.00
2018-06-29T07:00:18.663Z,23.22
2018-06-29T07:01:53.636Z,22.70
2018-06-29T07:03:29.509Z,22.73
2018-06-29T07:05:04.426Z,22.57
2018-06-29T07:06:40.034Z,22.77
2018-06-29T07:08:20.395Z,23.02
2018-06-29T07:09:57.181Z,22.88
2018-06-29T07:11:32.405Z,22.64
2018-06-29T07:13:11.569Z,22.61
2018-06-29T07:14:47.732Z,22.58
2018-06-29T07:16:26.624Z,22.52
2018-06-29T07:18:06.944Z,22.98
2018-06-29T07:19:44.987Z,22.69
2018-06-29T07:21:22.647Z,22.96
2018-06-29T07:22:58.208Z,23.14
2018-06-29T07:24:33.543Z,23.20
2018-06-29T07:26:10.034Z,23.53
2018-06-29T07:27:45.289Z,23.68
2018-06-29T07:29:20.227Z,24.10
2018-06-29T07:30:55.897Z,23.69
2018-06-29T07:32:31.183Z,23.66
2018-06-29T07:34:06.577Z,23.72
2018-06-29T07:35:41.548Z,23.47
2018-06-29T07:37:18.628Z,23.53
2018-06-29T07:38:55.477Z,23.49
2018-06-29T07:40:31.278Z,23.38
2018-06-29T07:42:07.515Z,23.67
2018-06-29T07:43:43.578Z,24.03
2018-06-29T07:45:19.282Z,23.81
2018-06-29T07:46:56.521Z,24.10
2018-06-29T07:48:32.729Z,24.16
2018-06-29T07:50:09.591Z,24.29
2018-06-29T07:51:46.342Z,23.97
2018-06-29T07:53:25.626Z,23.75
2018-06-29T07:55:00.921Z,23.96
2018-06-29T07:56:37.688Z,24.03
2018-06-29T07:58:14.523Z,23.97
2018-06-29T07:59:50.250Z,24.30
2018-06-29T08:01:27.022Z,24.59
2018-06-29T08:03:03.361Z,24.43
2018-06-29T08:04:39.971Z,24.50
2018-06-29T08:06:18.788Z,24.62
2018-06-29T08:07:55.592Z,24.44
2018-06-29T08:09:31.927Z,24.21
2018-06-29T08:11:09.565Z,24.11
2018-06-29T08:12:44.615Z,23.75
2018-06-29T08:14:22.277Z,23.76
2018-06-29T08:16:01.458Z,23.72
2018-06-29T08:17:37.661Z,24.15
2018-06-29T08:19:13.889Z,24.07
2018-06-29T08:20:49.173Z,24.04
2018-06-29T08:22:24.985Z,24.47
2018-06-29T08:24:00.889Z,24.50
2018-06-29T08:25:38.629Z,24.72
2018-06-29T08:27:14.292Z,24.77
2018-06-29T08:28:51.443Z,25.10
2018-06-29T08:30:27.319Z,24.77
2018-06-29T08:32:05.266Z,24.94
2018-06-29T08:33:43.009Z,25.05
2018-06-29T08:35:20.183Z,24.88
2018-06-29T08:36:58.174Z,24.71
2018-06-29T08:38:33.782Z,24.23
2018-06-29T08:40:09.762Z,24.02
2018-06-29T08:41:44.670Z,24.05
2018-06-29T08:43:23.583Z,24.69
2018-06-29T08:44:59.161Z,24.64
2018-06-29T08:46:34.384Z,24.83
2018-06-29T08:48:09.968Z,24.43
2018-06-29T08:49:46.112Z,24.91
2018-06-29T08:51:21.074Z,24.62
2018-06-29T08:52:56.895Z,24.46
2018-06-29T08:54:32.632Z,24.74
2018-06-29T08:56:07.883Z,24.60
2018-06-29T08:57:43.174Z,24.57
2018-06-29T08:59:19.105Z,24.91
2018-06-29T09:00:54.574Z,25.19
2018-06-29T09:02:30.286Z,25.25
2018-06-29T09:04:05.665Z,25.28
2018-06-29T09:05:40.656Z,25.55
2018-06-29T09:07:15.854Z,25.56
2018-06-29T09:08:51.149Z,25.49
2018-06-29T09:10:27.649Z,25.69
2018-06-29T09:12:02.374Z,25.85
2018-06-29T09:13:37.364Z,25.56
2018-06-29T09:15:17.672Z,25.08
2018-06-29T09:16:52.938Z,25.53
2018-06-29T09:18:29.428Z,25.33
2018-06-29T09:20:04.637Z,25.23
2018-06-29T09:21:47.792Z,25.53
2018-06-29T09:23:26.793Z,25.56
2018-06-29T09:25:01.853Z,26.16
2018-06-29T09:26:39.363Z,26.19
2018-06-29T09:28:16.024Z,25.42
2018-06-29T09:29:52.407Z,25.24
2018-06-29T09:31:29.618Z,25.37
2018-06-29T09:33:05.033Z,25.45
2018-06-29T09:34:40.368Z,25.84
2018-06-29T09:36:15.868Z,25.52
2018-06-29T09:37:51.612Z,24.96
2018-06-29T09:39:26.747Z,25.23
2018-06-29T09:41:02.987Z,25.40
2018-06-29T09:42:38.466Z,25.05
2018-06-29T09:44:14.322Z,25.54
2018-06-29T09:45:49.211Z,25.42
2018-06-29T09:47:25.214Z,25.09
2018-06-29T09:49:03.042Z,25.10
2018-06-29T09:50:38.474Z,25.09
2018-06-29T09:52:13.560Z,25.68
2018-06-29T09:53:51.331Z,25.79
2018-06-29T09:55:27.463Z,25.52
2018-06-29T09:57:02.666Z,26.17
2018-06-29T09:58:38.543Z,26.15
2018-06-29T10:00:18.376Z,26.47
2018-06-29T10:01:54.354Z,26.43
2018-06-29T10:03:29.559Z,26.13
2018-06-29T10:05:05.557Z,26.58
2018-06-29T10:06:41.386Z,26.24
2018-06-29T10:08:17.954Z,26.66
2018-06-29T10:09:53.281Z,26.95
2018-06-29T10:11:28.325Z,26.65
2018-06-29T10:13:04.883Z,26.34
2018-06-29T10:14:40.042Z,26.40
2018-06-29T10:16:16.292Z,26.63
2018-06-29T10:17:52.229Z,26.64
2018-06-29T10:19:28.293Z,27.15
2018-06-29T10:21:04.118Z,27.33
2018-06-29T10:22:39.890Z,27.30
2018-06-29T10:24:16.829Z,26.92
2018-06-29T10:25:57.152Z,27.19
2018-06-29T10:27:37.576Z,26.69
2018-06-29T10:29:16.073Z,26.13
2018-06-29T10:30:51.554Z,26.48
2018-06-29T10:32:27.800Z,26.36
2018-06-29T10:34:04.623Z,26.44
2018-06-29T10:35:41.252Z,26.13
2018-06-29T10:37:17.076Z,26.58
2018-06-29T10:38:53.019Z,26.75
2018-06-29T10:40:28.053Z,26.87
2018-06-29T10:42:05.079Z,27.36
2018-06-29T10:43:41.163Z,27.96
2018-06-29T10:45:17.835Z,28.17
2018-06-29T10:46:53.612Z,27.57
2018-06-29T10:48:31.030Z,26.84
2018-06-29T10:50:08.102Z,27.14
2018-06-29T10:51:45.361Z,27.45
2018-06-29T10:53:20.264Z,27.72
2018-06-29T10:54:55.437Z,26.76
2018-06-29T10:56:31.732Z,26.62
2018-06-29T10:58:09.177Z,26.26
2018-06-29T10:59:48.839Z,26.86
2018-06-29T11:01:24.402Z,26.86
2018-06-29T11:03:00.342Z,27.22
2018-06-29T11:04:39.218Z,27.44
2018-06-29T11:06:14.883Z,27.34
2018-06-29T11:07:51.612Z,28.23
2018-06-29T11:09:28.670Z,28.46
2018-06-29T11:11:09.655Z,28.68
2018-06-29T11:12:58.765Z,28.76
2018-06-29T11:14:37.256Z,28.88
2018-06-29T11:16:15.887Z,28.35
2018-06-29T11:17:58.645Z,28.15
2018-06-29T11:19:35.218Z,27.86
2018-06-29T11:21:13.368Z,27.67
2018-06-29T11:22:48.478Z,28.29
2018-06-29T11:24:26.034Z,28.19
2018-06-29T11:26:01.063Z,27.92
2018-06-29T11:27:38.069Z,27.33
2018-06-29T11:29:13.880Z,27.41
2018-06-29T11:30:50.827Z,27.18
2018-06-29T11:32:30.146Z,27.27
2018-06-29T11:34:06.690Z,27.36
2018-06-29T11:35:43.367Z,27.68
2018-06-29T11:37:21.409Z,27.76
2018-06-29T11:38:57.336Z,27.39
2018-06-29T11:40:32.654Z,27.87
2018-06-29T11:42:08.626Z,27.52
2018-06-29T11:43:46.214Z,27.84
2018-06-29T11:45:22.660Z,28.27
2018-06-29T11:47:00.427Z,28.55
2018-06-29T11:48:37.799Z,29.12
2018-06-29T11:50:15.940Z,28.58
2018-06-29T11:52:00.544Z,28.88
2018-06-29T11:53:43.509Z,27.86
2018-06-29T11:55:21.007Z,28.33
2018-06-29T11:56:58.712Z,28.65
2018-06-29T11:58:57.829Z,28.74
2018-06-29T12:00:34.743Z,28.97
2018-06-29T12:02:24.654Z,28.76
2018-06-29T12:04:02.564Z,28.65
2018-06-29T12:05:40.681Z,28.67
2018-06-29T12:07:16.702Z,29.11
2018-06-29T12:08:54.472Z,29.16
2018-06-29T12:10:31.502Z,29.31
2018-06-29T12:12:07.045Z,28.21
2018-06-29T12:13:42.387Z,28.44
2018-06-29T12:15:21.467Z,28.76
2018-06-29T12:16:57.986Z,28.83
2018-06-29T12:18:34.065Z,28.69
2018-06-29T12:20:15.017Z,29.10
2018-06-29T12:21:51.819Z,29.27
2018-06-29T12:23:28.281Z,28.96
2018-06-29T12:25:05.593Z,28.41
2018-06-29T12:26:43.147Z,27.44
2018-06-29T12:28:20.612Z,27.80
2018-06-29T12:29:57.575Z,28.44
2018-06-29T12:31:33.201Z,28.75
2018-06-29T12:33:09.588Z,28.25
2018-06-29T12:34:47.307Z,28.41
2018-06-29T12:36:24.377Z,27.91
2018-06-29T12:38:00.090Z,28.37
2018-06-29T12:39:35.531Z,28.52
2018-06-29T12:41:11.472Z,28.36
2018-06-29T12:42:47.039Z,29.05
2018-06-29T12:44:22.191Z,29.28
2018-06-29T12:45:57.828Z,29.20
2018-06-29T12:47:33.973Z,28.68
2018-06-29T12:49:09.681Z,28.28
2018-06-29T12:50:46.808Z,28.70
2018-06-29T12:52:22.403Z,28.82
2018-06-29T12:53:59.631Z,28.15
2018-06-29T12:55:35.526Z,27.98
2018-06-29T12:57:11.288Z,28.61
2018-06-29T12:58:46.862Z,28.47
2018-06-29T13:00:22.394Z,28.55
2018-06-29T13:01:58.725Z,28.90
2018-06-29T13:03:34.735Z,28.63
2018-06-29T13:05:12.165Z,28.94
2018-06-29T13:06:51.926Z,28.69
2018-06-29T13:08:33.104Z,28.29
2018-06-29T13:10:09.100Z,27.71
2018-06-29T13:11:44.674Z,27.81
2018-06-29T13:13:23.124Z,28.21
2018-06-29T13:14:59.622Z,28.46
2018-06-29T13:16:34.921Z,28.64
2018-06-29T13:18:11.096Z,28.89
2018-06-29T13:19:47.892Z,29.14
2018-06-29T13:21:22.716Z,28.45
2018-06-29T13:22:59.392Z,28.59
2018-06-29T13:24:34.833Z,28.49
2018-06-29T13:26:10.833Z,28.43
2018-06-29T13:27:52.333Z,28.70
2018-06-29T13:29:28.316Z,28.92
2018-06-29T13:31:08.102Z,29.00
2018-06-29T13:32:44.818Z,28.37
2018-06-29T13:34:21.672Z,28.46
2018-06-29T13:35:57.784Z,28.36
2018-06-29T13:37:34.309Z,28.26
2018-06-29T13:39:11.552Z,28.35
2018-06-29T13:40:47.811Z,28.24
2018-06-29T13:42:23.947Z,27.97
2018-06-29T13:44:00.319Z,27.63
2018-06-29T13:45:37.881Z,27.81
2018-06-29T13:47:14.097Z,27.81
2018-06-29T13:48:50.588Z,27.97
2018-06-29T13:50:28.805Z,28.02
2018-06-29T13:52:08.233Z,27.84
2018-06-29T13:53:45.861Z,28.24
2018-06-29T13:55:26.141Z,28.80
2018-06-29T13:57:04.943Z,29.18
2018-06-29T13:58:44.914Z,29.02
2018-06-29T14:00:23.360Z,29.21
2018-06-29T14:01:59.042Z,28.86
2018-06-29T14:03:36.039Z,28.96
2018-06-29T14:05:13.259Z,28.84
2018-06-29T14:06:48.824Z,28.60
2018-06-29T14:08:28.802Z,28.88
2018-06-29T14:10:05.753Z,29.14
2018-06-29T14:11:43.018Z,28.75
2018-06-29T14:13:20.410Z,28.71
2018-06-29T14:14:59.146Z,28.83
2018-06-29T14:16:35.446Z,29.20
2018-06-29T14:18:11.296Z,29.16
2018-06-29T14:19:46.703Z,29.51
2018-06-29T14:21:22.924Z,29.37
2018-06-29T14:22:57.802Z,29.31
2018-06-29T14:24:35.367Z,29.12
2018-06-29T14:26:11.517Z,29.22
2018-06-29T14:27:50.620Z,29.07
2018-06-29T14:29:26.638Z,28.89
2018-06-29T14:31:03.097Z,29.14
2018-06-29T14:32:39.231Z,29.32
2018-06-29T14:34:16.130Z,28.93
2018-06-29T14:35:53.631Z,28.53
2018-06-29T14:37:30.492Z,28.61
2018-06-29T14:39:08.149Z,28.42
2018-06-29T14:40:54.337Z,28.37
2018-06-29T14:42:32.611Z,28.53
2018-06-29T14:44:08.881Z,28.71
2018-06-29T14:45:45.638Z,28.83
2018-06-29T14:47:20.889Z,29.14
2018-06-29T14:48:55.959Z,29.29
2018-06-29T14:50:32.809Z,29.36
2018-06-29T14:52:07.895Z,29.22
2018-06-29T14:53:43.161Z,29.40
2018-06-29T14:55:18.120Z,29.34
2018-06-29T14:56:53.569Z,29.73
2018-06-29T14:58:28.910Z,29.58
2018-06-29T15:00:27.763Z,29.78
2018-06-29T15:02:03.256Z,29.67
2018-06-29T15:03:39.717Z,29.50
2018-06-29T15:05:16.214Z,29.18
2018-06-29T15:06:58.259Z,29.43
2018-06-29T15:08:33.288Z,29.05
2018-06-29T15:10:09.936Z,28.84
2018-06-29T15:11:49.766Z,28.55
2018-06-29T15:13:27.309Z,28.15
2018-06-29T15:15:04.182Z,28.56
2018-06-29T15:16:43.545Z,28.61
2018-06-29T15:18:21.166Z,29.07
2018-06-29T15:19:57.682Z,29.43
2018-06-29T15:21:34.545Z,29.42
2018-06-29T15:23:10.745Z,29.61
2018-06-29T15:24:47.885Z,29.43
2018-06-29T15:26:25.216Z,29.71
2018-06-29T15:28:03.482Z,29.60
2018-06-29T15:29:44.259Z,29.21
2018-06-29T15:31:32.859Z,29.31
2018-06-29T15:33:10.481Z,28.86
2018-06-29T15:34:47.687Z,29.07
2018-06-29T15:36:40.598Z,28.70
2018-06-29T15:38:16.568Z,28.68
2018-06-29T15:39:55.387Z,28.85
2018-06-29T15:41:34.318Z,29.09
2018-06-29T15:43:14.672Z,29.25
2018-06-29T15:44:53.549Z,29.45
2018-06-29T15:46:32.428Z,29.22
2018-06-29T15:48:10.035Z,29.26
2018-06-29T15:49:49.741Z,28.80
2018-06-29T15:51:25.423Z,29.28
2018-06-29T15:53:01.562Z,29.37
2018-06-29T15:54:37.288Z,29.52
2018-06-29T15:56:14.777Z,29.61
2018-06-29T15:57:51.032Z,29.44
2018-06-29T15:59:25.865Z,29.09
2018-06-29T16:01:02.023Z,28.63
2018-06-29T16:02:38.131Z,28.68
2018-06-29T16:04:13.817Z,28.76
2018-06-29T16:05:49.680Z,29.01
2018-06-29T16:07:27.409Z,28.94
2018-06-29T16:09:03.569Z,28.66
2018-06-29T16:10:39.426Z,28.63
2018-06-29T16:12:23.850Z,28.79
2018-06-29T16:14:00.357Z,28.65
2018-06-29T16:15:37.198Z,28.42
2018-06-29T16:17:15.376Z,28.39
2018-06-29T16:18:51.118Z,28.62
2018-06-29T16:20:27.053Z,28.38
2018-06-29T16:22:02.621Z,27.98
2018-06-29T16:23:38.259Z,28.30
2018-06-29T16:25:13.359Z,27.85
2018-06-29T16:26:50.364Z,27.74
2018-06-29T16:28:26.933Z,27.89
2018-06-29T16:30:09.468Z,27.96
2018-06-29T16:31:46.115Z,27.91
2018-06-29T16:33:22.708Z,27.83
2018-06-29T16:35:01.272Z,27.87
2018-06-29T16:36:38.270Z,28.03
2018-06-29T16:38:15.459Z,27.99
2018-06-29T16:39:51.956Z,27.92
2018-06-29T16:41:29.074Z,28.17
2018-06-29T16:43:04.637Z,28.22
2018-06-29T16:44:43.038Z,28.03
2018-06-29T16:46:20.402Z,28.37
2018-06-29T16:48:00.935Z,28.21
2018-06-29T16:49:38.476Z,28.27
2018-06-29T16:51:13.718Z,27.71
2018-06-29T16:52:56.642Z,27.86
2018-06-29T16:54:36.348Z,27.87
2018-06-29T16:56:11.370Z,27.72
2018-06-29T16:57:46.699Z,27.85
2018-06-29T16:59:23.322Z,27.72
2018-06-29T17:00:59.770Z,27.64
2018-06-29T17:02:37.251Z,27.43
2018-06-29T17:04:14.547Z,27.44
2018-06-29T17:05:54.942Z,27.12
2018-06-29T17:07:39.679Z,27.10
2018-06-29T17:09:19.812Z,27.26
2018-06-29T17:10:58.423Z,27.28
2018-06-29T17:12:35.280Z,27.31
2018-06-29T17:14:15.260Z,27.26
2018-06-29T17:15:52.855Z,27.31
2018-06-29T17:17:30.482Z,27.26
2018-06-29T17:19:17.701Z,27.34
2018-06-29T17:22:43.351Z,27.14
2018-06-29T17:24:21.293Z,27.19
2018-06-29T17:26:14.897Z,26.86
2018-06-29T17:27:58.395Z,27.09
2018-06-29T17:29:34.845Z,27.06
2018-06-29T17:31:14.508Z,26.97
2018-06-29T17:32:55.587Z,26.93
2018-06-29T17:34:33.790Z,27.02
2018-06-29T17:36:09.703Z,26.59
2018-06-29T17:37:46.641Z,26.59
2018-06-29T17:39:22.498Z,26.28
2018-06-29T17:41:01.687Z,26.45
2018-06-29T17:42:39.519Z,26.44
2018-06-29T17:44:16.281Z,26.36
2018-06-29T17:45:51.415Z,26.52
2018-06-29T17:47:26.680Z,26.46
2018-06-29T17:49:04.941Z,26.51
2018-06-29T17:50:39.951Z,26.40
2018-06-29T17:52:16.130Z,26.49
2018-06-29T17:53:53.146Z,26.60
2018-06-29T17:55:32.124Z,26.34
2018-06-29T17:57:10.398Z,26.29
2018-06-29T17:58:49.084Z,26.36
2018-06-29T18:00:28.627Z,26.17
2018-06-29T18:02:07.824Z,25.87
2018-06-29T18:03:50.264Z,25.97
2018-06-29T18:05:27.322Z,25.80
2018-06-29T18:07:03.373Z,25.90
2018-06-29T18:08:45.180Z,25.77
2018-06-29T18:10:27.053Z,25.89
2018-06-29T18:12:05.279Z,25.73
2018-06-29T18:13:42.252Z,25.95
2018-06-29T18:15:20.800Z,25.79
2018-06-29T18:16:58.378Z,25.53
2018-06-29T18:18:34.199Z,25.54
2018-06-29T18:20:11.034Z,25.26
2018-06-29T18:21:47.729Z,25.30
2018-06-29T18:23:24.794Z,25.25
2018-06-29T18:25:00.549Z,25.24
2018-06-29T18:26:43.517Z,25.21
2018-06-29T18:28:22.568Z,25.11
2018-06-29T18:30:00.569Z,24.93
2018-06-29T18:31:39.439Z,25.10
2018-06-29T18:33:20.154Z,25.07
2018-06-29T18:34:57.650Z,24.92
2018-06-29T18:36:36.017Z,24.78
2018-06-29T18:38:12.842Z,24.65
2018-06-29T18:39:52.602Z,24.58
2018-06-29T18:41:31.397Z,24.69
2018-06-29T18:43:18.000Z,24.59
2018-06-29T18:45:09.174Z,24.66
2018-06-29T18:46:51.377Z,24.53
2018-06-29T18:48:29.604Z,24.53
2018-06-29T18:50:09.405Z,24.44
2018-06-29T18:51:46.701Z,24.40
2018-06-29T18:53:25.029Z,24.28
2018-06-29T18:55:02.122Z,24.18
2018-06-29T18:56:38.283Z,24.13
2018-06-29T18:58:15.349Z,24.07
2018-06-29T18:59:59.706Z,24.05
2018-06-29T19:01:38.775Z,24.00
2018-06-29T19:03:14.920Z,23.93
2018-06-29T19:04:52.107Z,23.78
2018-06-29T19:06:30.605Z,23.78
2018-06-29T19:08:09.561Z,23.64
2018-06-29T19:09:49.603Z,23.55
2018-06-29T19:11:30.408Z,23.35
2018-06-29T19:13:11.598Z,23.29
2018-06-29T19:14:50.612Z,23.12
2018-06-29T19:16:28.700Z,23.07
2018-06-29T19:18:09.269Z,22.90
2018-06-29T19:19:55.209Z,22.78
2018-06-29T19:21:35.266Z,22.62
2018-06-29T19:23:17.173Z,22.52
2018-06-29T19:25:08.060Z,22.43
2018-06-29T19:26:46.864Z,22.23
2018-06-29T19:28:24.812Z,22.17
2018-06-29T19:30:59.203Z,22.19
2018-06-29T19:32:40.727Z,22.05
2018-06-29T19:34:27.655Z,21.81
2018-06-29T19:36:08.732Z,21.66
2018-06-29T19:37:57.383Z,21.56
2018-06-29T19:39:36.583Z,21.42
2018-06-29T19:41:14.981Z,21.29
2018-06-29T19:42:56.276Z,21.24
2018-06-29T19:44:34.196Z,21.12
2018-06-29T19:46:15.707Z,21.10
2018-06-29T19:47:54.232Z,20.98
2018-06-29T19:49:30.649Z,20.91
2018-06-29T19:51:07.101Z,20.80
2018-06-29T19:52:49.464Z,20.74
2018-06-29T19:54:26.348Z,20.71
2018-06-29T19:56:05.815Z,20.59
2018-06-29T19:57:43.529Z,20.47
2018-06-29T20:01:05.650Z,20.24
2018-06-29T20:02:47.498Z,20.12
2018-06-29T20:04:25.031Z,20.05
2018-06-29T20:06:19.739Z,20.01
2018-06-29T20:07:56.539Z,19.92
2018-06-29T20:09:43.363Z,19.80
2018-06-29T20:11:33.274Z,19.77
2018-06-29T20:13:11.737Z,19.62
2018-06-29T20:14:48.796Z,19.51
2018-06-29T20:20:36.811Z,19.14
2018-06-29T20:24:11.266Z,18.90
2018-06-29T20:27:42.673Z,18.69
2018-06-29T20:29:22.812Z,18.59
2018-06-29T20:31:04.492Z,18.45
2018-06-29T20:32:47.071Z,18.39
2018-06-29T20:34:26.605Z,18.30
2018-06-29T20:36:07.963Z,18.23
2018-06-29T20:37:51.387Z,18.14
2018-06-29T20:39:28.841Z,18.10
2018-06-29T20:41:07.328Z,18.15
2018-06-29T20:42:49.588Z,18.08
2018-06-29T20:44:33.324Z,18.13
2018-06-29T20:46:12.138Z,18.05
2018-06-29T20:47:49.622Z,18.07
2018-06-29T20:49:26.415Z,18.03
2018-06-29T20:51:06.206Z,17.95
2018-06-29T20:52:43.495Z,17.92
2018-06-29T20:54:21.420Z,17.95
2018-06-29T20:56:33.648Z,17.85
2018-06-29T20:58:19.004Z,17.83
2018-06-29T20:59:55.113Z,17.76
2018-06-29T21:01:43.568Z,17.75
2018-06-29T21:03:19.999Z,17.67
2018-06-29T21:05:01.659Z,17.57
2018-06-29T21:06:43.099Z,17.49
2018-06-29T21:08:21.914Z,17.50
2018-06-29T21:09:59.298Z,17.48